createdAt,value
2022-08-03T00:02:27.400Z,99413.58
2022-08-03T00:05:00.170Z,99411.81
2022-08-03T00:07:33.146Z,99403.84
2022-08-03T00:10:06.564Z,99410.47
2022-08-03T00:12:40.013Z,99402.52
2022-08-03T00:15:16.396Z,99415.79
2022-08-03T00:17:52.472Z,99410.48
2022-08-03T00:20:25.433Z,99411.80
2022-08-03T00:22:58.280Z,99417.54
2022-08-03T00:25:31.465Z,99417.92
2022-08-03T00:28:08.120Z,99409.05
2022-08-03T00:30:41.481Z,99409.05
2022-08-03T00:33:14.836Z,99401.06
2022-08-03T00:35:50.755Z,99407.68
2022-08-03T00:38:22.943Z,99408.53
2022-08-03T00:40:56.770Z,99408.53
2022-08-03T00:43:29.604Z,99399.72
2022-08-03T00:46:02.405Z,99396.64
2022-08-03T00:48:35.556Z,99390.87
2022-08-03T00:51:08.747Z,99387.34
2022-08-03T00:53:42.218Z,99389.11
2022-08-03T00:56:18.954Z,99382.89
2022-08-03T00:58:52.051Z,99379.38
2022-08-03T01:01:25.103Z,99383.78
2022-08-03T01:03:57.870Z,99383.77
2022-08-03T01:06:41.274Z,99381.99
2022-08-03T01:09:51.083Z,99377.13
2022-08-03T01:12:44.161Z,99381.09
2022-08-03T01:15:24.428Z,99388.58
2022-08-03T01:18:05.022Z,99388.14
2022-08-03T01:20:42.012Z,99385.02
2022-08-03T01:24:02.101Z,99383.23
2022-08-03T01:26:51.368Z,99379.69
2022-08-03T01:29:54.666Z,99386.72
2022-08-03T01:33:03.059Z,99373.45
2022-08-03T01:35:48.853Z,99375.22
2022-08-03T01:38:32.624Z,99384.47
2022-08-03T01:41:12.400Z,99378.27
2022-08-03T01:44:26.463Z,99381.27
2022-08-03T01:46:24.337Z,99380.34
2022-08-03T01:48:58.019Z,99387.83
2022-08-03T01:51:56.607Z,99382.98
2022-08-03T01:54:07.347Z,99383.87
2022-08-03T01:56:43.255Z,99391.37
2022-08-03T01:59:17.534Z,99390.90
2022-08-03T02:02:32.023Z,99379.84
2022-08-03T02:04:27.063Z,99385.59
2022-08-03T02:07:03.354Z,99383.81
2022-08-03T02:09:38.752Z,99382.93
2022-08-03T02:12:12.612Z,99390.87
2022-08-03T02:14:46.672Z,99390.42
2022-08-03T02:17:19.489Z,99389.53
2022-08-03T02:19:55.104Z,99391.73
2022-08-03T02:22:28.204Z,99396.62
2022-08-03T02:25:01.220Z,99393.97
2022-08-03T02:27:38.349Z,99393.97
2022-08-03T02:30:11.862Z,99394.38
2022-08-03T02:32:47.919Z,99389.13
2022-08-03T02:35:22.532Z,99390.47
2022-08-03T02:37:59.836Z,99390.92
2022-08-03T02:40:34.275Z,99387.80
2022-08-03T02:43:09.371Z,99394.88
2022-08-03T02:45:45.685Z,99387.78
2022-08-03T02:48:25.897Z,99389.55
2022-08-03T02:51:00.720Z,99393.48
2022-08-03T02:53:34.587Z,99391.64
2022-08-03T02:56:08.259Z,99391.64
2022-08-03T02:58:43.985Z,99391.66
2022-08-03T03:01:17.369Z,99396.52
2022-08-03T03:03:52.064Z,99396.53
2022-08-03T03:06:27.394Z,99395.63
2022-08-03T03:09:02.265Z,99396.12
2022-08-03T03:11:35.580Z,99405.39
2022-08-03T03:14:10.815Z,99403.26
2022-08-03T03:16:44.688Z,99398.87
2022-08-03T03:19:19.742Z,99413.50
2022-08-03T03:21:53.108Z,99418.42
2022-08-03T03:24:26.217Z,99417.55
2022-08-03T03:27:00.571Z,99427.27
2022-08-03T03:29:36.522Z,99423.78
2022-08-03T03:32:09.811Z,99422.50
2022-08-03T03:34:44.299Z,99421.62
2022-08-03T03:37:17.315Z,99424.77
2022-08-03T03:39:50.881Z,99425.25
2022-08-03T03:42:24.072Z,99428.77
2022-08-03T03:44:57.039Z,99422.16
2022-08-03T03:47:32.712Z,99427.91
2022-08-03T03:50:11.206Z,99423.53
2022-08-03T03:52:44.389Z,99432.81
2022-08-03T03:55:19.973Z,99423.97
2022-08-03T03:57:56.275Z,99433.73
2022-08-03T04:00:29.031Z,99430.25
2022-08-03T04:03:02.121Z,99432.09
2022-08-03T04:05:52.587Z,99433.90
2022-08-03T04:08:43.967Z,99435.34
2022-08-03T04:11:30.096Z,99438.06
2022-08-03T04:14:18.535Z,99444.28
2022-08-03T04:17:01.171Z,99444.34
2022-08-03T04:19:43.901Z,99448.78
2022-08-03T04:22:20.987Z,99452.73
2022-08-03T04:24:58.461Z,99450.53
2022-08-03T04:27:35.314Z,99451.86
2022-08-03T04:30:10.480Z,99460.28
2022-08-03T04:32:46.039Z,99459.37
2022-08-03T04:35:19.991Z,99464.27
2022-08-03T04:37:54.504Z,99461.16
2022-08-03T04:40:39.796Z,99458.95
2022-08-03T04:43:14.289Z,99455.39
2022-08-03T04:45:52.818Z,99457.63
2022-08-03T04:48:25.909Z,99451.41
2022-08-03T04:51:00.744Z,99453.64
2022-08-03T04:53:33.880Z,99447.86
2022-08-03T04:56:07.953Z,99449.61
2022-08-03T04:58:40.781Z,99447.84
2022-08-03T05:01:13.608Z,99445.59
2022-08-03T05:03:46.585Z,99448.23
2022-08-03T05:06:19.463Z,99442.93
2022-08-03T05:08:53.929Z,99441.56
2022-08-03T05:11:27.004Z,99445.06
2022-08-03T05:13:59.865Z,99443.25
2022-08-03T05:16:33.207Z,99434.39
2022-08-03T05:19:06.074Z,99437.47
2022-08-03T05:21:41.705Z,99427.72
2022-08-03T05:24:14.596Z,99424.58
2022-08-03T05:26:48.988Z,99431.64
2022-08-03T05:29:21.827Z,99429.87
2022-08-03T05:31:54.789Z,99428.55
2022-08-03T05:34:27.777Z,99430.73
2022-08-03T05:37:00.608Z,99426.20
2022-08-03T05:39:33.408Z,99426.20
2022-08-03T05:42:06.432Z,99423.98
2022-08-03T05:44:39.368Z,99432.33
2022-08-03T05:47:12.331Z,99432.33
2022-08-03T05:49:45.303Z,99434.12
2022-08-03T05:52:18.920Z,99439.41
2022-08-03T05:54:56.187Z,99430.89
2022-08-03T05:57:27.274Z,99430.89
2022-08-03T06:00:00.317Z,99427.77
2022-08-03T06:02:35.358Z,99425.92
2022-08-03T06:05:09.273Z,99425.86
2022-08-03T06:07:43.047Z,99421.70
2022-08-03T06:10:37.095Z,99421.70
2022-08-03T06:12:51.501Z,99425.18
2022-08-03T06:15:25.990Z,99428.63
2022-08-03T06:18:01.852Z,99430.83
2022-08-03T06:20:33.369Z,99434.31
2022-08-03T06:23:06.222Z,99438.73
2022-08-03T06:25:39.376Z,99447.14
2022-08-03T06:28:35.171Z,99437.30
2022-08-03T06:30:48.641Z,99435.92
2022-08-03T06:33:21.732Z,99436.74
2022-08-03T06:35:54.966Z,99433.58
2022-08-03T06:38:27.794Z,99435.75
2022-08-03T06:41:00.495Z,99438.36
2022-08-03T06:43:35.898Z,99439.19
2022-08-03T06:46:08.879Z,99444.00
2022-08-03T06:48:41.774Z,99444.37
2022-08-03T06:51:15.364Z,99451.00
2022-08-03T06:53:48.321Z,99456.70
2022-08-03T06:56:21.313Z,99458.91
2022-08-03T06:58:54.196Z,99458.88
2022-08-03T07:01:27.072Z,99463.23
2022-08-03T07:04:00.926Z,99459.61
2022-08-03T07:06:32.950Z,99459.09
2022-08-03T07:09:05.885Z,99462.13
2022-08-03T07:11:38.817Z,99464.64
2022-08-03T07:14:12.154Z,99462.32
2022-08-03T07:16:44.944Z,99469.36
2022-08-03T07:19:17.981Z,99465.30
2022-08-03T07:21:50.807Z,99470.14
2022-08-03T07:24:25.415Z,99469.59
2022-08-03T07:26:59.838Z,99470.39
2022-08-03T07:29:34.812Z,99472.62
2022-08-03T07:32:07.958Z,99472.47
2022-08-03T07:34:41.351Z,99474.13
2022-08-03T07:37:14.138Z,99469.17
2022-08-03T07:39:46.918Z,99474.36
2022-08-03T07:42:19.864Z,99470.22
2022-08-03T07:44:52.804Z,99467.06
2022-08-03T07:47:35.693Z,99464.29
2022-08-03T07:50:03.678Z,99470.84
2022-08-03T07:52:50.031Z,99473.44
2022-08-03T07:55:25.773Z,99480.97
2022-08-03T07:58:14.746Z,99475.55
2022-08-03T08:00:47.928Z,99477.70
2022-08-03T08:03:22.147Z,99477.67
2022-08-03T08:05:55.515Z,99476.23
2022-08-03T08:08:28.530Z,99480.07
2022-08-03T08:11:01.416Z,99474.11
2022-08-03T08:13:34.966Z,99475.33
2022-08-03T08:16:08.432Z,99469.97
2022-08-03T08:18:41.573Z,99475.70
2022-08-03T08:21:14.581Z,99476.02
2022-08-03T08:23:55.602Z,99477.14
2022-08-03T08:26:21.915Z,99476.02
2022-08-03T08:28:55.095Z,99475.52
2022-08-03T08:31:28.306Z,99479.05
2022-08-03T08:34:04.625Z,99473.56
2022-08-03T08:36:38.444Z,99483.23
2022-08-03T08:39:12.428Z,99477.48
2022-08-03T08:41:49.614Z,99478.35
2022-08-03T08:44:21.772Z,99474.27
2022-08-03T08:46:56.101Z,99476.84
2022-08-03T08:49:29.622Z,99475.55
2022-08-03T08:52:04.408Z,99470.59
2022-08-03T08:54:41.802Z,99471.02
2022-08-03T08:57:33.624Z,99476.31
2022-08-03T08:59:52.378Z,99475.27
2022-08-03T09:02:26.513Z,99466.66
2022-08-03T09:05:04.029Z,99467.33
2022-08-03T09:07:35.514Z,99458.20
2022-08-03T09:10:13.296Z,99455.23
2022-08-03T09:12:48.381Z,99455.48
2022-08-03T09:15:27.397Z,99464.79
2022-08-03T09:18:02.922Z,99460.30
2022-08-03T09:20:37.512Z,99465.00
2022-08-03T09:23:51.882Z,99460.87
2022-08-03T09:25:46.796Z,99458.62
2022-08-03T09:28:57.903Z,99458.11
2022-08-03T09:31:02.361Z,99467.45
2022-08-03T09:33:36.102Z,99470.06
2022-08-03T09:36:09.435Z,99465.96
2022-08-03T09:38:42.299Z,99463.67
2022-08-03T09:41:20.140Z,99462.22
2022-08-03T09:43:54.986Z,99458.83
2022-08-03T09:46:29.476Z,99459.88
2022-08-03T09:49:15.040Z,99461.45
2022-08-03T09:52:31.329Z,99454.10
2022-08-03T09:54:34.438Z,99444.02
2022-08-03T09:57:07.583Z,99448.48
2022-08-03T09:59:41.628Z,99446.95
2022-08-03T10:02:29.565Z,99444.46
2022-08-03T10:05:02.520Z,99446.16
2022-08-03T10:07:45.823Z,99446.48
2022-08-03T10:10:29.080Z,99447.27
2022-08-03T10:12:54.489Z,99444.25
2022-08-03T10:16:23.840Z,99445.85
2022-08-03T10:18:03.095Z,99451.81
2022-08-03T10:20:43.258Z,99446.44
2022-08-03T10:23:18.439Z,99440.09
2022-08-03T10:25:55.323Z,99447.55
2022-08-03T10:28:29.614Z,99444.81
2022-08-03T10:31:02.817Z,99451.62
2022-08-03T10:33:51.416Z,99443.70
2022-08-03T10:36:16.603Z,99444.23
2022-08-03T10:38:56.759Z,99449.22
2022-08-03T10:41:33.481Z,99436.73
2022-08-03T10:44:14.556Z,99438.32
2022-08-03T10:46:50.647Z,99441.56
2022-08-03T10:49:34.301Z,99447.34
2022-08-03T10:51:58.896Z,99444.75
2022-08-03T10:55:03.332Z,99447.09
2022-08-03T10:57:58.902Z,99436.85
2022-08-03T11:00:35.032Z,99428.77
2022-08-03T11:03:11.727Z,99433.19
2022-08-03T11:05:48.455Z,99431.02
2022-08-03T11:08:31.773Z,99429.25
2022-08-03T11:11:25.171Z,99426.28
2022-08-03T11:14:23.018Z,99429.06
2022-08-03T11:17:14.111Z,99419.41
2022-08-03T11:19:57.432Z,99417.09
2022-08-03T11:22:28.498Z,99418.59
2022-08-03T11:25:01.980Z,99409.04
2022-08-03T11:27:36.526Z,99407.22
2022-08-03T11:30:28.617Z,99404.17
2022-08-03T11:33:02.232Z,99396.09
2022-08-03T11:35:36.948Z,99396.14
2022-08-03T11:38:11.081Z,99388.56
2022-08-03T11:40:48.044Z,99384.99
2022-08-03T11:43:39.502Z,99390.58
2022-08-03T11:46:16.427Z,99389.14
2022-08-03T11:48:52.502Z,99386.88
2022-08-03T11:51:28.209Z,99387.69
2022-08-03T11:54:07.487Z,99386.59
2022-08-03T11:56:50.024Z,99382.81
2022-08-03T11:59:35.058Z,99376.64
2022-08-03T12:02:16.717Z,99383.37
2022-08-03T12:05:01.704Z,99384.81
2022-08-03T12:08:03.273Z,99388.46
2022-08-03T12:10:15.842Z,99395.75
2022-08-03T12:12:49.410Z,99398.68
2022-08-03T12:15:33.959Z,99387.18
2022-08-03T12:18:18.648Z,99392.52
2022-08-03T12:20:54.598Z,99390.70
2022-08-03T12:23:28.988Z,99391.45
2022-08-03T12:26:11.239Z,99392.13
2022-08-03T12:28:51.292Z,99392.27
2022-08-03T12:31:25.113Z,99399.48
2022-08-03T12:34:04.314Z,99394.20
2022-08-03T12:36:39.547Z,99384.45
2022-08-03T12:39:12.575Z,99384.06
2022-08-03T12:41:45.394Z,99379.22
2022-08-03T12:44:18.305Z,99377.00
2022-08-03T12:46:55.813Z,99380.56
2022-08-03T12:49:30.432Z,99381.43
2022-08-03T12:52:07.406Z,99379.52
2022-08-03T12:54:39.264Z,99390.22
2022-08-03T12:57:15.997Z,99378.60
2022-08-03T12:59:53.031Z,99369.20
2022-08-03T13:02:28.033Z,99365.27
2022-08-03T13:05:00.988Z,99368.52
2022-08-03T13:07:46.305Z,99378.58
2022-08-03T13:10:35.432Z,99381.02
2022-08-03T13:13:09.131Z,99396.43
2022-08-03T13:15:47.813Z,99403.36
2022-08-03T13:18:17.270Z,99412.92
2022-08-03T13:20:50.660Z,99418.47
2022-08-03T13:23:23.776Z,99432.05
2022-08-03T13:25:56.650Z,99439.37
2022-08-03T13:28:29.503Z,99450.69
2022-08-03T13:31:02.787Z,99458.78
2022-08-03T13:33:39.314Z,99456.18
2022-08-03T13:36:12.244Z,99459.81
2022-08-03T13:38:45.491Z,99466.99
2022-08-03T13:41:18.637Z,99469.23
2022-08-03T13:44:12.038Z,99467.50
2022-08-03T13:46:28.098Z,99469.71
2022-08-03T13:49:01.019Z,99474.64
2022-08-03T13:51:34.540Z,99472.44
2022-08-03T13:54:07.637Z,99471.96
2022-08-03T13:56:40.791Z,99469.75
2022-08-03T13:59:13.811Z,99469.80
2022-08-03T14:01:55.255Z,99466.04
2022-08-03T14:04:22.785Z,99465.55
2022-08-03T14:06:55.775Z,99479.00
2022-08-03T14:09:29.480Z,99479.86
2022-08-03T14:12:08.378Z,99471.39
2022-08-03T14:14:37.918Z,99463.28
2022-08-03T14:17:10.837Z,99468.45
2022-08-03T14:19:53.218Z,99470.55
2022-08-03T14:22:19.759Z,99466.33
2022-08-03T14:24:52.603Z,99474.16
2022-08-03T14:27:26.054Z,99474.72
2022-08-03T14:30:00.353Z,99473.92
2022-08-03T14:32:33.610Z,99476.69
2022-08-03T14:35:07.335Z,99484.72
2022-08-03T14:37:40.618Z,99485.15
2022-08-03T14:40:13.552Z,99481.08
2022-08-03T14:42:46.759Z,99478.41
2022-08-03T14:45:20.757Z,99471.72
2022-08-03T14:50:24.947Z,99474.45
2022-08-03T14:50:42.910Z,99472.35
2022-08-03T14:53:06.750Z,99469.80
2022-08-03T14:55:50.929Z,99475.81
2022-08-03T14:58:21.173Z,99480.82
2022-08-03T15:00:49.593Z,99484.45
2022-08-03T15:03:25.150Z,99486.73
2022-08-03T15:05:59.198Z,99491.31
2022-08-03T15:08:33.072Z,99498.63
2022-08-03T15:11:06.310Z,99496.11
2022-08-03T15:13:39.696Z,99519.38
2022-08-03T15:16:12.485Z,99532.38
2022-08-03T15:18:45.410Z,99540.55
2022-08-03T15:21:46.609Z,99543.38
2022-08-03T15:23:53.116Z,99546.58
2022-08-03T15:26:30.954Z,99555.14
2022-08-03T15:29:01.428Z,99554.78
2022-08-03T15:31:34.723Z,99541.97
2022-08-03T15:34:07.602Z,99547.91
2022-08-03T15:36:40.453Z,99547.11
2022-08-03T15:39:13.496Z,99557.81
2022-08-03T15:41:46.416Z,99554.29
2022-08-03T15:44:22.838Z,99551.17
2022-08-03T15:46:55.873Z,99555.21
2022-08-03T15:49:28.824Z,99558.78
2022-08-03T15:52:01.764Z,99556.17
2022-08-03T15:54:34.855Z,99564.63
2022-08-03T15:57:08.344Z,99569.98
2022-08-03T15:59:41.373Z,99571.34
2022-08-03T16:02:14.709Z,99569.63
2022-08-03T16:04:47.993Z,99564.30
2022-08-03T16:07:22.806Z,99565.88
2022-08-03T16:09:56.123Z,99565.70
2022-08-03T16:12:29.297Z,99560.33
2022-08-03T16:15:02.525Z,99558.52
2022-08-03T16:17:35.927Z,99562.52
2022-08-03T16:20:29.077Z,99566.56
2022-08-03T16:22:50.268Z,99563.46
2022-08-03T16:25:23.087Z,99559.95
2022-08-03T16:28:07.308Z,99559.16
2022-08-03T16:30:30.899Z,99568.11
2022-08-03T16:33:05.494Z,99569.52
2022-08-03T16:35:38.826Z,99561.57
2022-08-03T16:38:16.543Z,99566.48
2022-08-03T16:40:47.363Z,99566.52
2022-08-03T16:43:22.692Z,99569.20
2022-08-03T16:45:55.645Z,99566.58
2022-08-03T16:48:28.485Z,99575.09
2022-08-03T16:51:01.393Z,99574.28
2022-08-03T16:54:05.632Z,99570.33
2022-08-03T16:56:10.567Z,99572.56
2022-08-03T16:58:44.379Z,99577.48
2022-08-03T17:01:21.805Z,99578.83
2022-08-03T17:04:02.411Z,99581.50
2022-08-03T17:06:33.877Z,99585.52
2022-08-03T17:09:10.135Z,99586.84
2022-08-03T17:11:47.708Z,99589.05
2022-08-03T17:14:28.565Z,99588.18
2022-08-03T17:17:06.786Z,99593.52
2022-08-03T17:19:42.155Z,99598.86
2022-08-03T17:22:21.893Z,99596.70
2022-08-03T17:24:55.993Z,99601.17
2022-08-03T17:28:49.513Z,99605.19
2022-08-03T17:30:09.720Z,99618.53
2022-08-03T17:32:56.977Z,99618.13
2022-08-03T17:35:21.478Z,99616.85
2022-08-03T17:38:03.275Z,99616.85
2022-08-03T17:40:29.490Z,99615.13
2022-08-03T17:44:16.654Z,99615.13
2022-08-03T17:45:52.330Z,99617.36
2022-08-03T17:48:18.449Z,99617.36
2022-08-03T17:50:55.189Z,99611.58
2022-08-03T17:53:33.229Z,99618.70
2022-08-03T17:56:42.414Z,99617.83
2022-08-03T17:59:13.696Z,99619.59
2022-08-03T18:02:29.581Z,99613.84
2022-08-03T18:05:16.499Z,99616.07
2022-08-03T18:08:00.884Z,99620.53
2022-08-03T18:10:29.252Z,99628.95
2022-08-03T18:13:13.870Z,99630.72
2022-08-03T18:16:02.867Z,99635.63
2022-08-03T18:18:43.029Z,99635.63
2022-08-03T18:21:16.946Z,99630.73
2022-08-03T18:23:52.815Z,99630.31
2022-08-03T18:26:26.710Z,99636.06
2022-08-03T18:29:00.249Z,99631.66
2022-08-03T18:32:02.613Z,99635.20
2022-08-03T18:34:19.854Z,99644.52
2022-08-03T18:36:48.818Z,99644.97
2022-08-03T18:39:21.919Z,99644.97
2022-08-03T18:41:54.905Z,99650.75
2022-08-03T18:44:52.602Z,99650.75
2022-08-03T18:47:23.029Z,99657.41
2022-08-03T18:50:12.516Z,99653.84
2022-08-03T18:52:57.788Z,99653.84
2022-08-03T18:55:36.484Z,99651.64
2022-08-03T18:58:19.412Z,99641.45
2022-08-03T19:02:00.387Z,99641.45
2022-08-03T19:03:56.143Z,99639.67
2022-08-03T19:06:31.511Z,99638.35
2022-08-03T19:09:13.310Z,99638.35
2022-08-03T19:12:14.151Z,99634.36
2022-08-03T19:14:31.438Z,99630.38
2022-08-03T19:19:47.711Z,99628.63
2022-08-03T19:22:22.628Z,99626.39
2022-08-03T19:24:58.087Z,99623.77
2022-08-03T19:27:34.612Z,99622.45
2022-08-03T19:30:21.973Z,99617.55
2022-08-03T19:32:48.266Z,99621.98
2022-08-03T19:35:51.952Z,99624.20
2022-08-03T19:37:55.509Z,99618.45
2022-08-03T19:40:33.260Z,99622.45
2022-08-03T19:43:11.045Z,99614.02
2022-08-03T19:46:04.418Z,99616.64
2022-08-03T19:48:24.129Z,99613.98
2022-08-03T19:51:00.059Z,99613.98
2022-08-03T19:53:37.235Z,99615.76
2022-08-03T19:56:12.662Z,99616.63
2022-08-03T19:58:45.725Z,99613.09
2022-08-03T20:01:21.657Z,99613.09
2022-08-03T20:03:55.186Z,99616.21
2022-08-03T20:06:28.547Z,99623.73
2022-08-03T20:09:01.890Z,99619.74
2022-08-03T20:11:45.113Z,99615.30
2022-08-03T20:14:13.318Z,99613.09
2022-08-03T20:16:49.343Z,99607.34
2022-08-03T20:19:23.057Z,99608.22
2022-08-03T20:21:56.315Z,99613.08
2022-08-03T20:24:35.267Z,99605.11
2022-08-03T20:27:10.195Z,99604.23
2022-08-03T20:30:07.670Z,99603.34
2022-08-03T20:32:24.729Z,99604.67
2022-08-03T20:34:58.648Z,99604.67
2022-08-03T20:37:31.684Z,99605.99
2022-08-03T20:40:07.744Z,99605.53
2022-08-03T20:42:40.739Z,99610.84
2022-08-03T20:46:00.172Z,99609.50
2022-08-03T20:47:50.613Z,99605.95
2022-08-03T20:50:24.092Z,99609.06
2022-08-03T20:52:58.909Z,99612.59
2022-08-03T20:55:53.772Z,99606.41
2022-08-03T20:58:07.894Z,99601.53
2022-08-03T21:00:42.577Z,99607.71
2022-08-03T21:03:16.390Z,99608.16
2022-08-03T21:05:53.622Z,99605.92
2022-08-03T21:08:27.907Z,99611.69
2022-08-03T21:11:01.937Z,99617.44
2022-08-03T21:13:01.991Z,99633.95
2022-08-03T21:13:59.257Z,99620.50
2022-08-03T21:16:34.030Z,99623.56
2022-08-03T21:19:06.915Z,99629.77
2022-08-03T21:21:41.064Z,99628.41
2022-08-03T21:24:13.460Z,99632.81
2022-08-03T21:26:48.569Z,99631.06
2022-08-03T21:29:22.960Z,99629.74
2022-08-03T21:31:56.366Z,99626.17
2022-08-03T21:34:29.669Z,99631.48
2022-08-03T21:37:02.911Z,99620.85
2022-08-03T21:39:37.279Z,99627.06
2022-08-03T21:42:11.663Z,99630.16
2022-08-03T21:44:44.943Z,99635.47
2022-08-03T21:47:18.086Z,99637.21
2022-08-03T21:50:07.692Z,99634.99
2022-08-03T21:52:29.070Z,99634.53
2022-08-03T21:55:05.838Z,99636.30
2022-08-03T21:57:42.841Z,99641.16
2022-08-03T22:00:21.765Z,99642.49
2022-08-03T22:03:00.360Z,99644.27
2022-08-03T22:05:43.281Z,99650.45
2022-08-03T22:08:10.033Z,99654.88
2022-08-03T22:10:45.608Z,99651.35
2022-08-03T22:13:43.603Z,99651.34
2022-08-03T22:15:56.511Z,99647.77
2022-08-03T22:18:29.719Z,99652.19
2022-08-03T22:21:03.245Z,99648.20
2022-08-03T22:23:41.108Z,99653.95
2022-08-03T22:26:18.065Z,99655.70
2022-08-03T22:28:52.892Z,99656.59
2022-08-03T22:31:30.905Z,99660.55
2022-08-03T22:34:01.307Z,99654.36
2022-08-03T22:36:34.826Z,99654.77
2022-08-03T22:39:07.645Z,99655.20
2022-08-03T22:41:40.421Z,99663.61
2022-08-03T22:44:15.126Z,99658.72
2022-08-03T22:46:48.166Z,99659.17
2022-08-03T22:49:22.008Z,99655.20
2022-08-03T22:51:55.404Z,99661.39
2022-08-03T22:54:28.223Z,99663.20
2022-08-03T22:57:01.591Z,99654.80
2022-08-03T22:59:42.116Z,99658.81
2022-08-03T23:02:21.773Z,99662.80
2022-08-03T23:04:58.049Z,99668.58
2022-08-03T23:07:34.685Z,99665.48
2022-08-03T23:10:14.129Z,99662.84
2022-08-03T23:12:50.749Z,99665.50
2022-08-03T23:15:26.751Z,99664.63
2022-08-03T23:18:00.184Z,99663.30
2022-08-03T23:20:33.688Z,99662.84
2022-08-03T23:23:06.631Z,99660.20
2022-08-03T23:25:41.594Z,99667.70
2022-08-03T23:28:19.313Z,99669.93
2022-08-03T23:30:52.973Z,99666.81
2022-08-03T23:33:25.842Z,99675.64
2022-08-03T23:36:27.717Z,99668.59
2022-08-03T23:38:38.368Z,99669.47
2022-08-03T23:41:11.856Z,99666.37
2022-08-03T23:43:51.817Z,99663.30
2022-08-03T23:46:21.115Z,99669.95
2022-08-03T23:48:56.533Z,99670.81
2022-08-03T23:51:45.575Z,99668.16
2022-08-03T23:54:29.186Z,99668.61
2022-08-03T23:57:06.596Z,99672.14
